Terminal Aerodrome Forecast
Issued by NWS Cleveland, OH

Home | Current Version | Previous Version | Graphics & Text | Print | Product List | Glossary On
Versions: 1 2 3 4 5 6 7 8 9 10 11 12 13 14 15 16 17
000
FTUS41 KCLE 250823 AAA
TAFYNG
TAF AMD
KYNG 250823Z 2508/2606 24012KT 5SM -RA SCT015 BKN045
      TEMPO 2508/2511 19010KT BKN015
     FM251600 26012G20KT P6SM BKN025
     FM251900 26015G25KT 6SM -SHSN BKN025
     FM260000 27015G23KT P6SM OVC020=

USA.gov is the U.S. government's official web portal to all federal, state and local government web resources and services.